SPBSCAPPOOSE
METARs for airports near SPB, sorted by distance:
N 0 nm 58' KSPB 161053Z 00000KT 10SM OVC004 09/08 A3013
SE 12 nm 28' KVUO 161053Z 00000KT 10SM CLR 09/08 A3014
S 14 nm 207' KHIO 161053Z 00000KT 1/4SM FG VV002 08/08 A3013
SE 15 nm 30' KPDX 161053Z 15005KT 10SM CLR 09/07 A3014
N 20 nm 20' KKLS 161056Z 14009KT 10SM OVC050 10/09 A3013
SE 23 nm 38' KTTD 161116Z 09003KT 10SM SCT002 08/06 A3014
S 31 nm 199' KUAO 161116Z 00000KT 1 3/4SM BR CLR 07/06 A3014
S 36 nm 162' KMMV 161111Z 00000KT 3/4SM BR VV003 07/07 A3013
SW 45 nm 39' KTMK 161115Z 00000KT 10SM OVC048 11/10 A3012
NW 48 nm 14' KAST 161055Z 13004KT 10SM BKN030 OVC038 13/10 A3007
S 52 nm 213' KSLE 161056Z 00000KT 10SM CLR 08/07 A3013
N 54 nm 177' KCLS 161115Z 17006KT 10SM BKN046 OVC065 12/10 A3009
E 71 nm 246' KDLS 161053Z 00000KT 10SM CLR 08/06 A3014
N 71 nm 207' KOLM 161054Z 20007KT 10SM BKN045 OVC060 13/08 A3007
S 78 nm 249' KCVO 161107Z 00000KT 1/4SM FG BKN003 04/04 A3015
N 79 nm 301' KGRF 161058Z 00000KT 10SM BKN046 OVC055 13/08 A3006
N 83 nm 537' KPLU 161115Z 00000KT 10SM OVC055 15/07 A3007
N 83 nm 322' KTCM 161058Z 19004KT 10SM FEW044 BKN060 OVC080 13/08 A3007
NW 84 nm 17' KHQM 161117Z 18012KT 10SM SCT020 SCT026 OVC033 15/11 A3004
SW 87 nm 160' KONP 161115Z 10006KT 10SM BKN044 08/08 A3014
N 88 nm 272' KSHN 161053Z 00000KT 10SM OVC035 12/11 A3004
N 90 nm 294' KTIW 161053Z 00000KT 10SM FEW050 OVC060 12/10 A3007
S 99 nm 373' KEUG 161054Z 19006KT 10SM CLR 06/06 A3015
TAFs for airports near SPB, sorted by distance:
S 14 nm 207' KHIO TAF
  AMD KHIO 160904Z 1609/1706 VRB03KT 1/2SM FG OVC003
  FM161600 VRB03KT 3SM BR BKN003
  FM161800 VRB03KT P6SM SCT180
SE 15 nm 30' KPDX KPDX 160906Z 1609/1706 VRB03KT P6SM BKN040
  FM161700 12005KT P6SM SCT150
SE 23 nm 38' KTTD TAF KTTD 160520Z 1606/1706 VRB03KT P6SM FEW250
S 31 nm 199' KUAO KUAO 160913Z 1609/1706 00000KT 1SM BCFG SCT003
  FM161700 VRB03KT P6SM SCT200
  FM162100 20005KT P6SM FEW250
NW 48 nm 14' KAST TAF KAST 160520Z 1606/1706 16006KT P6SM BKN070
  FM161000 16006KT P6SM BKN030
  FM162100 19011G19KT P6SM BKN050
  FM170000 19009KT P6SM OVC060
S 52 nm 213' KSLE TAF KSLE 160520Z 1606/1706 VRB04KT P6SM SCT250
E 71 nm 246' KDLS KDLS 160525Z 1606/1706 23005KT P6SM SCT200
  FM161800 33005KT P6SM SKC
N 71 nm 207' KOLM KOLM 160522Z 1606/1706 15003KT P6SM OVC050
  FM161500 18007KT P6SM OVC050
  FM170000 21005KT P6SM OVC100
N 79 nm 301' KGRF TAF KGRF 160500Z 1605/1711 14004KT 9999 BKN050 QNH3011INS
  BECMG 1609/1610 20005KT 9999 SCT040 BKN080 QNH3009INS
  BECMG 1617/1618 20010G18KT 9999 SCT030 QNH3001INS
  BECMG 1708/1709 20005KT 9999 BKN030 QNH2977INS TX17/1622Z TN10/1615Z
N 83 nm 322' KTCM TAF KTCM 160500Z 1605/1711 20006KT 9999 OVC045 QNH3012INS
  BECMG 1611/1612 17005KT 9999 FEW060 BKN180 QNH3005INS
  BECMG 1617/1618 19010G15KT 9999 BKN100 OVC200 QNH3000INS
  BECMG 1710/1711 19006KT 9999 VCSH SCT015 OVC035 QNH2979INS TX18/1623Z TN08/1613Z
NW 84 nm 17' KHQM KHQM 160522Z 1606/1706 12006KT P6SM OVC060
  FM161800 18015G25KT P6SM -RA BKN020 OVC040
  FM170200 18010KT P6SM OVC030
SW 87 nm 160' KONP TAF KONP 160520Z 1606/1706 16005KT P6SM SCT200
  FM161100 16006KT P6SM BKN028
  FM161600 15005KT P6SM BKN090
S 99 nm 373' KEUG TAF KEUG 160520Z 1606/1706 VRB03KT P6SM FEW250
  FM161200 VRB03KT 1SM BCFG BKN250
  FM161700 VRB03KT P6SM SCT180

Shortcut to this page: http://wxbay.com.

Data may contain errors.